Time;durP1;ratioP1;P1;durP2;ratioP2;P2;SDS_P1;SDS_P2;PMS_P1;PMS_P2;Temp;Humidity;BMP_temperature;BMP_pressure;BME280_temperature;BME280_humidity;BME280_pressure;Samples;Min_cycle;Max_cycle;Signal;HPM_P1;HPM_P2
2023/04/06 06:58:31;;;;;;;;;;;20.20;88.20;;;;;;5061419;28;20440;-77
2023/04/06 07:00:58;;;;;;;;;;;20.20;88.40;;;;;;5090486;28;20015;-76
2023/04/06 07:03:25;;;;;;;;;;;20.20;86.90;;;;;;5091630;28;19939;-76
2023/04/06 07:05:55;;;;;;;;;;;20.20;88.00;;;;;;5072210;28;20011;-77
2023/04/06 07:08:22;;;;;;;;;;;20.20;88.50;;;;;;5072524;28;19999;-77
2023/04/06 07:10:50;;;;;;;;;;;20.20;88.10;;;;;;5073009;28;20373;-77
2023/04/06 07:13:21;;;;;;;;;;;20.20;88.70;;;;;;5082077;28;19908;-76
2023/04/06 07:15:48;;;;;;;;;;;20.20;88.30;;;;;;5078906;28;20652;-76
2023/04/06 07:18:15;;;;;;;;;;;20.20;88.60;;;;;;5060138;28;19915;-77
2023/04/06 07:20:41;;;;;;;;;;;20.20;88.90;;;;;;5077378;28;19965;-77
2023/04/06 07:23:08;;;;;;;;;;;20.10;88.80;;;;;;5090928;28;20374;-77
2023/04/06 07:25:35;;;;;;;;;;;20.10;88.60;;;;;;5076521;28;19970;-77
2023/04/06 07:28:02;;;;;;;;;;;20.10;88.70;;;;;;5077539;28;19908;-77
2023/04/06 07:30:29;;;;;;;;;;;20.10;88.60;;;;;;5090922;28;19962;-77
2023/04/06 07:32:56;;;;;;;;;;;20.10;89.00;;;;;;5087570;28;19916;-76
2023/04/06 07:35:24;;;;;;;;;;;20.10;88.70;;;;;;5060759;28;19920;-77
2023/04/06 07:37:51;;;;;;;;;;;20.10;88.90;;;;;;5078403;28;19912;-77
2023/04/06 07:40:17;;;;;;;;;;;20.10;89.00;;;;;;5089283;28;19947;-77
2023/04/06 07:42:44;;;;;;;;;;;20.00;89.00;;;;;;5087110;28;19915;-77
2023/04/06 07:45:11;;;;;;;;;;;20.00;89.20;;;;;;5087554;28;20349;-77
2023/04/06 07:47:38;;;;;;;;;;;20.00;89.10;;;;;;5107900;28;20433;-76
2023/04/06 07:50:05;;;;;;;;;;;20.00;89.20;;;;;;5092141;28;20077;-77
2023/04/06 07:52:32;;;;;;;;;;;20.00;89.30;;;;;;5086094;28;19918;-76
2023/04/06 07:54:59;;;;;;;;;;;20.00;89.30;;;;;;5077926;28;20003;-78
2023/04/06 07:57:25;;;;;;;;;;;19.90;89.00;;;;;;5088476;28;19918;-77
2023/04/06 08:48:19;;;;;;;;;;;19.50;88.90;;;;;;5058253;28;20010;-78
2023/04/06 08:50:46;;;;;;;;;;;19.50;88.70;;;;;;5072126;28;20369;-78
2023/04/06 08:53:13;;;;;;;;;;;19.50;88.90;;;;;;5077534;28;19958;-76
2023/04/06 08:55:40;;;;;;;;;;;19.50;88.70;;;;;;5074444;28;20081;-77
2023/04/06 08:58:07;;;;;;;;;;;19.50;88.70;;;;;;5095378;28;19912;-77
2023/04/06 09:00:36;;;;;;;;;;;19.40;88.30;;;;;;5071329;28;19912;-76
2023/04/06 09:03:02;;;;;;;;;;;19.40;88.40;;;;;;5094682;28;20411;-75
2023/04/06 09:05:30;;;;;;;;;;;19.40;88.00;;;;;;5050653;28;19927;-77
2023/04/06 09:07:56;;;;;;;;;;;19.40;88.00;;;;;;5077683;28;19920;-75
2023/04/06 09:10:24;;;;;;;;;;;19.40;87.70;;;;;;5072302;28;19942;-75
2023/04/06 09:12:51;;;;;;;;;;;19.40;88.20;;;;;;5072285;28;20348;-75
2023/04/06 09:15:21;;;;;;;;;;;19.40;87.50;;;;;;5080099;28;19970;-75
2023/04/06 09:17:48;;;;;;;;;;;19.40;87.40;;;;;;5089637;28;19912;-75
2023/04/06 09:20:16;;;;;;;;;;;19.40;86.60;;;;;;5082048;28;19916;-72
2023/04/06 09:22:43;;;;;;;;;;;19.40;87.00;;;;;;5084647;28;19924;-75
2023/04/06 09:25:10;;;;;;;;;;;19.40;87.30;;;;;;5083026;28;20286;-74
2023/04/06 09:27:37;;;;;;;;;;;19.40;87.10;;;;;;5090308;28;20438;-88
2023/04/06 09:30:08;;;;;;;;;;;19.40;87.40;;;;;;5086804;28;19908;-85
2023/04/06 09:32:46;;;;;;;;;;;19.40;87.60;;;;;;5084281;28;19920;-86
2023/04/06 09:35:13;;;;;;;;;;;19.30;87.20;;;;;;5078010;28;19916;-81
2023/04/06 09:37:40;;;;;;;;;;;19.30;87.50;;;;;;5086147;28;19920;-83
2023/04/06 09:40:07;;;;;;;;;;;19.30;87.40;;;;;;5075001;28;19913;-83
2023/04/06 09:42:34;;;;;;;;;;;19.30;87.60;;;;;;5071287;28;20275;-80
2023/04/06 09:45:04;;;;;;;;;;;19.30;87.10;;;;;;5083947;28;19920;-84
2023/04/06 09:47:32;;;;;;;;;;;19.30;87.90;;;;;;5078026;28;19928;-80
2023/04/06 09:49:59;;;;;;;;;;;19.20;87.30;;;;;;5081482;28;19924;-81
2023/04/06 09:52:40;;;;;;;;;;;19.20;88.10;;;;;;5088736;28;19973;-81
2023/04/06 09:55:07;;;;;;;;;;;19.20;87.70;;;;;;5079328;28;19916;-87
2023/04/06 09:57:46;;;;;;;;;;;19.20;87.60;;;;;;5086290;28;20019;-82
2023/04/06 10:00:16;;;;;;;;;;;19.20;87.70;;;;;;5075820;28;20090;-83
2023/04/06 10:03:01;;;;;;;;;;;19.10;87.10;;;;;;5083281;28;19955;-81
2023/04/06 10:05:45;;;;;;;;;;;19.10;87.40;;;;;;5075804;28;19926;-80
2023/04/06 10:08:12;;;;;;;;;;;19.00;87.50;;;;;;5075872;28;20225;-82
2023/04/06 10:10:39;;;;;;;;;;;19.00;87.50;;;;;;5073521;28;19916;-82
2023/04/06 10:13:06;;;;;;;;;;;19.00;87.20;;;;;;5087424;28;20282;-82
2023/04/06 10:15:33;;;;;;;;;;;19.00;87.50;;;;;;5083182;28;19969;-80
2023/04/06 10:18:00;;;;;;;;;;;18.90;87.70;;;;;;5070704;28;19962;-80
2023/04/06 10:20:29;;;;;;;;;;;18.90;87.70;;;;;;5069058;28;19920;-81
2023/04/06 10:22:58;;;;;;;;;;;18.90;88.30;;;;;;5084755;28;19912;-78
2023/04/06 10:25:29;;;;;;;;;;;18.90;88.00;;;;;;5090052;28;20015;-81
2023/04/06 10:28:02;;;;;;;;;;;18.90;88.20;;;;;;5077302;28;20015;-86
2023/04/06 10:30:29;;;;;;;;;;;18.80;88.20;;;;;;5074500;28;19913;-86
2023/04/06 10:32:56;;;;;;;;;;;18.80;88.70;;;;;;5071189;28;19912;-82
2023/04/06 10:35:23;;;;;;;;;;;18.80;88.40;;;;;;5085746;28;19999;-80
2023/04/06 10:37:51;;;;;;;;;;;18.80;87.90;;;;;;5081770;28;19916;-80
2023/04/06 10:40:22;;;;;;;;;;;18.80;88.20;;;;;;5074419;28;20370;-78
2023/04/06 10:42:49;;;;;;;;;;;18.80;88.00;;;;;;5070163;28;20351;-80
2023/04/06 10:45:22;;;;;;;;;;;18.80;88.30;;;;;;5071489;28;20285;-81
2023/04/06 10:47:50;;;;;;;;;;;18.80;88.00;;;;;;5086028;28;19935;-79
2023/04/06 10:50:17;;;;;;;;;;;18.80;88.40;;;;;;5081232;28;19920;-84
2023/04/06 10:52:46;;;;;;;;;;;18.80;88.30;;;;;;5088200;28;20020;-79
2023/04/06 10:55:14;;;;;;;;;;;18.80;88.60;;;;;;5088725;28;19916;-82
2023/04/06 10:57:41;;;;;;;;;;;18.80;88.30;;;;;;5077995;28;20370;-87
2023/04/06 11:00:08;;;;;;;;;;;18.80;88.30;;;;;;5071957;28;19920;-81
2023/04/06 11:02:38;;;;;;;;;;;18.70;88.30;;;;;;5070675;28;19912;-78
2023/04/06 11:05:05;;;;;;;;;;;18.70;88.40;;;;;;5068517;28;19923;-82
2023/04/06 11:07:31;;;;;;;;;;;18.80;88.80;;;;;;5070638;28;19999;-83
2023/04/06 11:09:58;;;;;;;;;;;18.80;89.00;;;;;;5070936;28;19966;-77
2023/04/06 11:12:30;;;;;;;;;;;18.80;88.90;;;;;;5070202;28;19955;-79
2023/04/06 11:15:02;;;;;;;;;;;18.80;89.20;;;;;;5069288;28;20010;-76
2023/04/06 11:17:29;;;;;;;;;;;18.70;88.90;;;;;;5035998;28;19920;-79
2023/04/06 11:19:56;;;;;;;;;;;18.70;88.80;;;;;;5057533;28;19924;-84
2023/04/06 11:22:23;;;;;;;;;;;18.70;88.70;;;;;;5080144;28;19916;-78
2023/04/06 11:24:50;;;;;;;;;;;18.70;88.70;;;;;;5087422;28;19928;-79
2023/04/06 11:27:16;;;;;;;;;;;18.70;88.50;;;;;;5078163;28;19912;-82
2023/04/06 11:29:43;;;;;;;;;;;18.70;88.70;;;;;;5070241;28;20120;-82
2023/04/06 11:32:10;;;;;;;;;;;18.70;88.80;;;;;;5071085;28;19912;-80
2023/04/06 11:34:38;;;;;;;;;;;18.60;88.90;;;;;;5084393;28;20445;-77
2023/04/06 11:37:08;;;;;;;;;;;18.60;89.00;;;;;;5084120;28;20282;-78
2023/04/06 11:39:43;;;;;;;;;;;18.60;89.10;;;;;;5076396;28;19934;-78
2023/04/06 11:42:10;;;;;;;;;;;18.60;89.20;;;;;;5067672;28;19916;-78
2023/04/06 11:44:40;;;;;;;;;;;18.50;89.30;;;;;;5081552;28;19920;-81
2023/04/06 11:47:07;;;;;;;;;;;18.50;89.10;;;;;;5088410;28;19920;-78
2023/04/06 11:49:36;;;;;;;;;;;18.50;89.30;;;;;;5084628;28;20376;-80
2023/04/06 11:52:03;;;;;;;;;;;18.50;89.30;;;;;;5073614;28;19959;-79
2023/04/06 11:54:37;;;;;;;;;;;18.50;89.50;;;;;;5080645;28;19986;-79
2023/04/06 11:57:04;;;;;;;;;;;18.50;89.50;;;;;;5069993;28;19912;-75
2023/04/06 11:59:31;;;;;;;;;;;18.50;89.60;;;;;;5053381;28;19913;-77
2023/04/06 12:01:58;;;;;;;;;;;18.40;89.70;;;;;;5088961;28;20094;-75
2023/04/06 12:04:25;;;;;;;;;;;18.40;89.80;;;;;;5071832;28;19920;-82
2023/04/06 12:06:51;;;;;;;;;;;18.30;89.80;;;;;;5087762;28;19916;-79
2023/04/06 12:09:18;;;;;;;;;;;18.30;90.20;;;;;;5089747;28;19908;-79
2023/04/06 12:11:45;;;;;;;;;;;18.20;90.40;;;;;;5082944;28;19916;-79
2023/04/06 12:14:12;;;;;;;;;;;18.20;90.50;;;;;;5084530;28;19920;-79
2023/04/06 12:16:39;;;;;;;;;;;18.30;90.60;;;;;;5074765;28;19908;-85
2023/04/06 12:19:06;;;;;;;;;;;18.30;90.60;;;;;;5068379;28;20004;-86
2023/04/06 12:21:33;;;;;;;;;;;18.30;90.60;;;;;;5077465;28;20349;-85
2023/04/06 12:24:00;;;;;;;;;;;18.30;90.40;;;;;;5067722;28;19955;-85
2023/04/06 12:26:27;;;;;;;;;;;18.20;90.60;;;;;;5070324;28;19917;-77
2023/04/06 12:28:54;;;;;;;;;;;18.30;90.60;;;;;;5060548;28;19920;-77
2023/04/06 12:31:21;;;;;;;;;;;18.20;90.50;;;;;;5084717;28;19919;-79
2023/04/06 12:33:48;;;;;;;;;;;18.20;90.90;;;;;;5080857;28;20004;-81
2023/04/06 12:36:24;;;;;;;;;;;18.20;90.80;;;;;;5089628;28;19916;-84
2023/04/06 12:38:51;;;;;;;;;;;18.20;90.80;;;;;;5082766;28;20339;-83
2023/04/06 12:41:18;;;;;;;;;;;18.20;90.90;;;;;;5074622;28;20007;-87
2023/04/06 12:43:45;;;;;;;;;;;18.20;91.10;;;;;;5074176;28;19986;-83
2023/04/06 12:46:12;;;;;;;;;;;18.10;90.90;;;;;;5082889;28;20387;-85
2023/04/06 12:48:39;;;;;;;;;;;18.20;90.90;;;;;;5061354;28;20344;-86
2023/04/06 12:51:06;;;;;;;;;;;18.20;91.00;;;;;;5090356;28;19916;-85
2023/04/06 12:53:33;;;;;;;;;;;18.20;90.90;;;;;;5070599;28;19912;-85
2023/04/06 12:56:00;;;;;;;;;;;18.20;90.90;;;;;;5090527;28;19921;-84
2023/04/06 12:58:28;;;;;;;;;;;18.20;90.90;;;;;;5075303;28;20003;-85
2023/04/06 13:00:55;;;;;;;;;;;18.10;91.00;;;;;;5083257;28;19963;-85
2023/04/06 13:03:22;;;;;;;;;;;18.10;90.90;;;;;;5088822;28;20374;-86
2023/04/06 13:05:49;;;;;;;;;;;18.00;90.90;;;;;;5095419;28;19923;-86
2023/04/06 13:08:16;;;;;;;;;;;18.00;90.90;;;;;;5089938;28;19913;-86
2023/04/06 13:10:53;;;;;;;;;;;18.00;91.00;;;;;;5069111;28;19913;-85
2023/04/06 13:13:26;;;;;;;;;;;18.00;91.30;;;;;;5089366;28;19908;-84
2023/04/06 13:15:55;;;;;;;;;;;18.00;91.30;;;;;;5063776;28;19963;-84
2023/04/06 13:18:22;;;;;;;;;;;18.00;91.20;;;;;;5086713;28;19912;-85
2023/04/06 13:20:49;;;;;;;;;;;18.00;91.20;;;;;;5066302;28;19928;-85
2023/04/06 13:23:16;;;;;;;;;;;18.00;91.20;;;;;;5090283;28;19912;-85
2023/04/06 13:25:43;;;;;;;;;;;17.90;91.20;;;;;;5074687;28;19916;-85
2023/04/06 13:28:11;;;;;;;;;;;18.00;91.40;;;;;;5094945;28;19995;-84
2023/04/06 13:30:38;;;;;;;;;;;17.90;91.20;;;;;;5094837;28;19912;-85
2023/04/06 13:33:06;;;;;;;;;;;17.90;91.10;;;;;;5093968;28;19919;-86
2023/04/06 13:35:33;;;;;;;;;;;17.90;91.00;;;;;;5083370;28;19916;-86
2023/04/06 13:38:00;;;;;;;;;;;17.80;91.00;;;;;;5086849;28;19916;-86
2023/04/06 20:27:22;;;;;;;;;;;16.20;93.70;;;;;;5066738;28;20020;-90
2023/04/06 20:29:49;;;;;;;;;;;16.20;93.90;;;;;;5084532;28;19916;-90
2023/04/06 20:32:19;;;;;;;;;;;16.20;93.90;;;;;;5091622;28;19912;-90
2023/04/06 20:34:46;;;;;;;;;;;16.20;93.90;;;;;;5091492;28;19923;-90
2023/04/06 20:37:13;;;;;;;;;;;16.20;93.80;;;;;;5090958;28;20018;-90
2023/04/06 20:39:40;;;;;;;;;;;16.30;93.90;;;;;;5092134;28;19912;-89
2023/04/06 20:42:07;;;;;;;;;;;16.30;93.90;;;;;;5092242;28;19939;-90
2023/04/06 20:44:34;;;;;;;;;;;16.30;93.90;;;;;;5092268;28;19916;-89
2023/04/06 20:47:01;;;;;;;;;;;16.30;93.80;;;;;;5093505;28;19926;-89
2023/04/06 20:49:28;;;;;;;;;;;16.30;93.80;;;;;;5095952;28;20002;-90
2023/04/06 20:51:54;;;;;;;;;;;16.30;93.70;;;;;;5094144;28;20255;-90
2023/04/06 20:54:21;;;;;;;;;;;16.30;93.80;;;;;;5096278;28;19908;-89
2023/04/06 20:56:48;;;;;;;;;;;16.30;93.90;;;;;;5094736;28;19916;-90
2023/04/06 20:59:14;;;;;;;;;;;16.30;93.90;;;;;;5094553;28;20069;-90
2023/04/06 21:01:42;;;;;;;;;;;16.40;94.00;;;;;;5087158;28;20294;-88
2023/04/06 21:04:09;;;;;;;;;;;16.40;94.00;;;;;;5083271;28;19996;-90
2023/04/06 21:06:36;;;;;;;;;;;16.50;94.10;;;;;;5084783;28;20324;-89
2023/04/06 21:09:02;;;;;;;;;;;16.50;94.10;;;;;;5093046;28;19919;-89
2023/04/06 21:11:29;;;;;;;;;;;16.60;94.20;;;;;;5092862;28;19984;-89
2023/04/06 21:14:00;;;;;;;;;;;16.60;94.10;;;;;;5094225;28;20205;-89
2023/04/06 21:16:26;;;;;;;;;;;16.70;94.20;;;;;;5091384;28;19973;-89
2023/04/06 21:18:53;;;;;;;;;;;16.70;94.30;;;;;;5077133;28;19915;-88
2023/04/06 21:21:20;;;;;;;;;;;16.80;94.30;;;;;;5091859;28;19994;-89
2023/04/06 21:23:46;;;;;;;;;;;16.80;94.30;;;;;;5090906;28;19971;-88
2023/04/06 21:26:13;;;;;;;;;;;16.90;94.30;;;;;;5075011;28;20011;-88
2023/04/06 21:28:40;;;;;;;;;;;17.00;94.30;;;;;;5082102;28;20285;-88
2023/04/06 21:31:07;;;;;;;;;;;17.00;94.30;;;;;;5095034;28;19951;-88
2023/04/06 21:33:34;;;;;;;;;;;17.10;94.20;;;;;;5095383;28;19951;-88
2023/04/06 21:36:06;;;;;;;;;;;17.10;94.10;;;;;;5095051;28;19962;-88
2023/04/06 21:38:36;;;;;;;;;;;17.10;93.80;;;;;;5084584;28;19940;-88
2023/04/06 21:41:03;;;;;;;;;;;17.10;93.70;;;;;;5063274;28;19919;-88
2023/04/06 21:43:30;;;;;;;;;;;17.20;93.80;;;;;;5079752;28;19919;-88
2023/04/06 21:45:56;;;;;;;;;;;17.20;93.40;;;;;;5058192;28;19999;-88
2023/04/06 21:48:23;;;;;;;;;;;17.20;93.30;;;;;;5057049;28;19961;-88
2023/04/06 21:50:50;;;;;;;;;;;17.30;93.50;;;;;;5089458;28;20011;-88
2023/04/06 21:53:16;;;;;;;;;;;17.30;93.70;;;;;;5063373;28;19999;-88
2023/04/06 21:55:43;;;;;;;;;;;17.40;93.70;;;;;;5089342;28;19924;-88
